sensor_id;sensor_type;location;lat;lon;timestamp;P1;durP1;ratioP1;P2;durP2;ratioP2
51298;SDS011;37382;45.192;9.790;2024-03-07T00:00:13;18.35;;;12.10;;
51298;SDS011;37382;45.192;9.790;2024-03-07T00:02:49;20.20;;;11.35;;
51298;SDS011;37382;45.192;9.790;2024-03-07T00:05:21;14.55;;;11.27;;
51298;SDS011;37382;45.192;9.790;2024-03-07T00:07:52;14.27;;;11.90;;
51298;SDS011;37382;45.192;9.790;2024-03-07T00:10:20;14.00;;;11.43;;
51298;SDS011;37382;45.192;9.790;2024-03-07T00:12:48;12.60;;;10.43;;
51298;SDS011;37382;45.192;9.790;2024-03-07T00:15:17;15.75;;;11.10;;
51298;SDS011;37382;45.192;9.790;2024-03-07T00:17:45;19.05;;;12.45;;
51298;SDS011;37382;45.192;9.790;2024-03-07T00:20:12;16.58;;;11.73;;
51298;SDS011;37382;45.192;9.790;2024-03-07T00:22:47;16.02;;;11.50;;
51298;SDS011;37382;45.192;9.790;2024-03-07T00:25:14;16.33;;;12.57;;
51298;SDS011;37382;45.192;9.790;2024-03-07T00:27:46;21.27;;;14.25;;
51298;SDS011;37382;45.192;9.790;2024-03-07T00:30:14;20.10;;;13.57;;
51298;SDS011;37382;45.192;9.790;2024-03-07T00:32:45;20.75;;;13.77;;
51298;SDS011;37382;45.192;9.790;2024-03-07T00:35:16;17.77;;;14.07;;
51298;SDS011;37382;45.192;9.790;2024-03-07T00:37:43;19.98;;;14.13;;
51298;SDS011;37382;45.192;9.790;2024-03-07T00:40:11;19.85;;;14.35;;
51298;SDS011;37382;45.192;9.790;2024-03-07T00:42:39;18.95;;;14.18;;
51298;SDS011;37382;45.192;9.790;2024-03-07T00:45:06;24.35;;;15.35;;
51298;SDS011;37382;45.192;9.790;2024-03-07T00:47:34;21.67;;;14.85;;
51298;SDS011;37382;45.192;9.790;2024-03-07T00:50:02;19.92;;;14.10;;
51298;SDS011;37382;45.192;9.790;2024-03-07T00:52:29;23.25;;;15.05;;
51298;SDS011;37382;45.192;9.790;2024-03-07T00:54:57;24.15;;;13.90;;
51298;SDS011;37382;45.192;9.790;2024-03-07T00:57:25;20.48;;;14.02;;
51298;SDS011;37382;45.192;9.790;2024-03-07T00:59:52;17.98;;;13.52;;
51298;SDS011;37382;45.192;9.790;2024-03-07T01:02:19;25.35;;;13.68;;
51298;SDS011;37382;45.192;9.790;2024-03-07T01:04:47;21.50;;;14.15;;
51298;SDS011;37382;45.192;9.790;2024-03-07T01:07:15;21.98;;;14.10;;
51298;SDS011;37382;45.192;9.790;2024-03-07T01:09:43;20.00;;;14.73;;
51298;SDS011;37382;45.192;9.790;2024-03-07T01:12:10;22.38;;;15.55;;
51298;SDS011;37382;45.192;9.790;2024-03-07T01:14:38;25.85;;;15.27;;
51298;SDS011;37382;45.192;9.790;2024-03-07T01:17:06;18.25;;;14.25;;
51298;SDS011;37382;45.192;9.790;2024-03-07T01:19:35;21.73;;;14.63;;
51298;SDS011;37382;45.192;9.790;2024-03-07T01:22:03;26.13;;;16.40;;
51298;SDS011;37382;45.192;9.790;2024-03-07T01:24:30;21.00;;;14.52;;
51298;SDS011;37382;45.192;9.790;2024-03-07T01:26:58;24.88;;;14.35;;
51298;SDS011;37382;45.192;9.790;2024-03-07T01:29:27;20.40;;;13.18;;
51298;SDS011;37382;45.192;9.790;2024-03-07T01:31:54;18.40;;;13.73;;
51298;SDS011;37382;45.192;9.790;2024-03-07T01:34:22;17.08;;;12.90;;
51298;SDS011;37382;45.192;9.790;2024-03-07T01:36:49;19.65;;;11.68;;
51298;SDS011;37382;45.192;9.790;2024-03-07T01:39:17;16.27;;;11.23;;
51298;SDS011;37382;45.192;9.790;2024-03-07T01:41:45;14.00;;;10.95;;
51298;SDS011;37382;45.192;9.790;2024-03-07T01:44:12;15.85;;;10.68;;
51298;SDS011;37382;45.192;9.790;2024-03-07T01:46:40;15.77;;;11.20;;
51298;SDS011;37382;45.192;9.790;2024-03-07T01:49:08;17.63;;;10.73;;
51298;SDS011;37382;45.192;9.790;2024-03-07T01:51:36;16.42;;;10.85;;
51298;SDS011;37382;45.192;9.790;2024-03-07T01:54:06;13.48;;;10.93;;
51298;SDS011;37382;45.192;9.790;2024-03-07T01:56:36;23.65;;;10.65;;
51298;SDS011;37382;45.192;9.790;2024-03-07T01:59:04;15.18;;;10.98;;
51298;SDS011;37382;45.192;9.790;2024-03-07T02:01:34;16.60;;;10.82;;
51298;SDS011;37382;45.192;9.790;2024-03-07T02:04:03;12.68;;;10.50;;
51298;SDS011;37382;45.192;9.790;2024-03-07T02:06:32;12.63;;;10.15;;
51298;SDS011;37382;45.192;9.790;2024-03-07T02:09:00;15.13;;;10.85;;
51298;SDS011;37382;45.192;9.790;2024-03-07T02:11:29;16.20;;;10.88;;
51298;SDS011;37382;45.192;9.790;2024-03-07T02:13:57;15.77;;;11.18;;
51298;SDS011;37382;45.192;9.790;2024-03-07T02:16:24;13.50;;;10.38;;
51298;SDS011;37382;45.192;9.790;2024-03-07T02:18:52;13.00;;;10.43;;
51298;SDS011;37382;45.192;9.790;2024-03-07T02:21:22;16.17;;;10.93;;
51298;SDS011;37382;45.192;9.790;2024-03-07T02:23:50;14.52;;;11.05;;
51298;SDS011;37382;45.192;9.790;2024-03-07T02:26:18;17.85;;;10.55;;
51298;SDS011;37382;45.192;9.790;2024-03-07T02:28:46;12.80;;;10.43;;
51298;SDS011;37382;45.192;9.790;2024-03-07T02:31:13;14.25;;;10.98;;
51298;SDS011;37382;45.192;9.790;2024-03-07T02:33:40;14.50;;;11.13;;
51298;SDS011;37382;45.192;9.790;2024-03-07T02:36:09;15.68;;;11.77;;
51298;SDS011;37382;45.192;9.790;2024-03-07T02:38:36;14.25;;;11.45;;
51298;SDS011;37382;45.192;9.790;2024-03-07T02:41:03;14.98;;;11.13;;
51298;SDS011;37382;45.192;9.790;2024-03-07T02:43:31;17.33;;;10.77;;
51298;SDS011;37382;45.192;9.790;2024-03-07T02:45:58;14.30;;;11.45;;
51298;SDS011;37382;45.192;9.790;2024-03-07T02:48:25;16.92;;;11.88;;
51298;SDS011;37382;45.192;9.790;2024-03-07T02:50:53;14.55;;;11.13;;
51298;SDS011;37382;45.192;9.790;2024-03-07T02:53:21;17.52;;;10.95;;
51298;SDS011;37382;45.192;9.790;2024-03-07T02:55:48;19.17;;;13.73;;
51298;SDS011;37382;45.192;9.790;2024-03-07T02:58:16;21.95;;;13.48;;
51298;SDS011;37382;45.192;9.790;2024-03-07T03:00:44;22.63;;;14.00;;
51298;SDS011;37382;45.192;9.790;2024-03-07T03:03:11;21.67;;;14.82;;
51298;SDS011;37382;45.192;9.790;2024-03-07T03:05:39;18.35;;;14.23;;
51298;SDS011;37382;45.192;9.790;2024-03-07T03:08:06;18.58;;;14.27;;
51298;SDS011;37382;45.192;9.790;2024-03-07T03:10:34;16.95;;;11.85;;
51298;SDS011;37382;45.192;9.790;2024-03-07T03:13:01;15.77;;;11.38;;
51298;SDS011;37382;45.192;9.790;2024-03-07T03:15:29;13.13;;;11.02;;
51298;SDS011;37382;45.192;9.790;2024-03-07T03:17:57;15.43;;;10.95;;
51298;SDS011;37382;45.192;9.790;2024-03-07T03:20:29;11.68;;;10.30;;
51298;SDS011;37382;45.192;9.790;2024-03-07T03:23:06;12.65;;;10.05;;
51298;SDS011;37382;45.192;9.790;2024-03-07T03:25:47;12.82;;;10.85;;
51298;SDS011;37382;45.192;9.790;2024-03-07T03:28:18;11.88;;;10.60;;
51298;SDS011;37382;45.192;9.790;2024-03-07T03:30:47;13.85;;;11.02;;
51298;SDS011;37382;45.192;9.790;2024-03-07T03:33:15;17.50;;;10.93;;
51298;SDS011;37382;45.192;9.790;2024-03-07T03:35:43;14.10;;;11.30;;
51298;SDS011;37382;45.192;9.790;2024-03-07T03:38:12;16.70;;;10.77;;
51298;SDS011;37382;45.192;9.790;2024-03-07T03:40:39;15.07;;;13.45;;
51298;SDS011;37382;45.192;9.790;2024-03-07T03:43:07;18.25;;;12.30;;
51298;SDS011;37382;45.192;9.790;2024-03-07T03:45:34;15.45;;;11.98;;
51298;SDS011;37382;45.192;9.790;2024-03-07T03:48:02;16.10;;;11.10;;
51298;SDS011;37382;45.192;9.790;2024-03-07T03:50:31;25.10;;;20.17;;
51298;SDS011;37382;45.192;9.790;2024-03-07T03:52:58;16.38;;;13.38;;
51298;SDS011;37382;45.192;9.790;2024-03-07T03:55:28;15.15;;;13.00;;
51298;SDS011;37382;45.192;9.790;2024-03-07T03:57:55;19.58;;;12.07;;
51298;SDS011;37382;45.192;9.790;2024-03-07T04:00:23;16.75;;;11.63;;
51298;SDS011;37382;45.192;9.790;2024-03-07T04:02:50;14.98;;;11.98;;
51298;SDS011;37382;45.192;9.790;2024-03-07T04:05:20;17.77;;;12.75;;
51298;SDS011;37382;45.192;9.790;2024-03-07T04:07:49;15.52;;;11.77;;
51298;SDS011;37382;45.192;9.790;2024-03-07T04:10:16;13.48;;;10.30;;
51298;SDS011;37382;45.192;9.790;2024-03-07T04:12:45;14.75;;;11.13;;
51298;SDS011;37382;45.192;9.790;2024-03-07T04:15:14;13.95;;;10.80;;
51298;SDS011;37382;45.192;9.790;2024-03-07T04:17:46;13.27;;;10.73;;
51298;SDS011;37382;45.192;9.790;2024-03-07T04:20:15;13.65;;;11.48;;
51298;SDS011;37382;45.192;9.790;2024-03-07T04:22:46;17.25;;;11.43;;
51298;SDS011;37382;45.192;9.790;2024-03-07T04:25:16;15.55;;;12.30;;
51298;SDS011;37382;45.192;9.790;2024-03-07T04:27:44;16.23;;;12.82;;
51298;SDS011;37382;45.192;9.790;2024-03-07T04:30:13;16.67;;;12.68;;
51298;SDS011;37382;45.192;9.790;2024-03-07T04:32:43;16.38;;;12.27;;
51298;SDS011;37382;45.192;9.790;2024-03-07T04:35:11;15.30;;;12.07;;
51298;SDS011;37382;45.192;9.790;2024-03-07T04:37:43;14.57;;;11.60;;
51298;SDS011;37382;45.192;9.790;2024-03-07T04:40:10;16.02;;;11.23;;
51298;SDS011;37382;45.192;9.790;2024-03-07T04:42:47;13.80;;;11.80;;
51298;SDS011;37382;45.192;9.790;2024-03-07T04:45:19;13.60;;;11.35;;
51298;SDS011;37382;45.192;9.790;2024-03-07T04:47:47;13.73;;;10.75;;
51298;SDS011;37382;45.192;9.790;2024-03-07T04:50:16;13.40;;;10.50;;
51298;SDS011;37382;45.192;9.790;2024-03-07T04:52:47;11.27;;;9.57;;
51298;SDS011;37382;45.192;9.790;2024-03-07T04:55:16;13.13;;;10.38;;
51298;SDS011;37382;45.192;9.790;2024-03-07T04:57:44;13.52;;;10.40;;
51298;SDS011;37382;45.192;9.790;2024-03-07T05:00:12;12.25;;;9.73;;
51298;SDS011;37382;45.192;9.790;2024-03-07T05:02:44;14.63;;;9.98;;
51298;SDS011;37382;45.192;9.790;2024-03-07T05:05:16;10.82;;;9.10;;
51298;SDS011;37382;45.192;9.790;2024-03-07T05:07:51;11.88;;;10.43;;
51298;SDS011;37382;45.192;9.790;2024-03-07T05:10:18;13.52;;;9.98;;
51298;SDS011;37382;45.192;9.790;2024-03-07T05:12:48;12.98;;;9.48;;
51298;SDS011;37382;45.192;9.790;2024-03-07T05:15:17;10.10;;;8.48;;
51298;SDS011;37382;45.192;9.790;2024-03-07T05:17:45;12.35;;;8.82;;
51298;SDS011;37382;45.192;9.790;2024-03-07T05:20:13;12.82;;;9.27;;
51298;SDS011;37382;45.192;9.790;2024-03-07T05:22:41;9.30;;;8.18;;
51298;SDS011;37382;45.192;9.790;2024-03-07T05:25:14;12.80;;;8.88;;
51298;SDS011;37382;45.192;9.790;2024-03-07T05:27:44;12.50;;;9.45;;
51298;SDS011;37382;45.192;9.790;2024-03-07T05:30:12;11.25;;;8.00;;
51298;SDS011;37382;45.192;9.790;2024-03-07T05:32:42;13.82;;;9.40;;
51298;SDS011;37382;45.192;9.790;2024-03-07T05:35:10;11.55;;;8.52;;
51298;SDS011;37382;45.192;9.790;2024-03-07T05:37:38;16.08;;;10.07;;
51298;SDS011;37382;45.192;9.790;2024-03-07T05:40:09;23.05;;;20.50;;
51298;SDS011;37382;45.192;9.790;2024-03-07T05:42:37;13.30;;;10.25;;
51298;SDS011;37382;45.192;9.790;2024-03-07T05:45:04;15.20;;;8.82;;
51298;SDS011;37382;45.192;9.790;2024-03-07T05:47:35;13.38;;;8.50;;
51298;SDS011;37382;45.192;9.790;2024-03-07T05:50:03;17.25;;;9.52;;
51298;SDS011;37382;45.192;9.790;2024-03-07T05:52:31;15.27;;;9.63;;
51298;SDS011;37382;45.192;9.790;2024-03-07T05:54:58;41.70;;;20.98;;
51298;SDS011;37382;45.192;9.790;2024-03-07T05:57:26;25.25;;;15.90;;
51298;SDS011;37382;45.192;9.790;2024-03-07T05:59:53;23.95;;;12.52;;
51298;SDS011;37382;45.192;9.790;2024-03-07T06:02:21;15.73;;;9.57;;
51298;SDS011;37382;45.192;9.790;2024-03-07T06:04:49;13.10;;;7.93;;
51298;SDS011;37382;45.192;9.790;2024-03-07T06:07:16;9.68;;;6.18;;
51298;SDS011;37382;45.192;9.790;2024-03-07T06:09:43;12.23;;;6.28;;
51298;SDS011;37382;45.192;9.790;2024-03-07T06:12:11;8.85;;;6.70;;
51298;SDS011;37382;45.192;9.790;2024-03-07T06:14:52;8.93;;;5.83;;
51298;SDS011;37382;45.192;9.790;2024-03-07T06:17:20;12.20;;;6.15;;
51298;SDS011;37382;45.192;9.790;2024-03-07T06:19:50;24.13;;;7.47;;
51298;SDS011;37382;45.192;9.790;2024-03-07T06:22:18;10.07;;;6.70;;
51298;SDS011;37382;45.192;9.790;2024-03-07T06:24:45;10.70;;;7.15;;
51298;SDS011;37382;45.192;9.790;2024-03-07T06:27:13;8.43;;;6.72;;
51298;SDS011;37382;45.192;9.790;2024-03-07T06:29:54;11.67;;;7.10;;
51298;SDS011;37382;45.192;9.790;2024-03-07T06:32:22;11.93;;;7.60;;
51298;SDS011;37382;45.192;9.790;2024-03-07T06:34:50;13.38;;;7.43;;
51298;SDS011;37382;45.192;9.790;2024-03-07T06:37:18;15.05;;;7.78;;
51298;SDS011;37382;45.192;9.790;2024-03-07T06:39:46;13.98;;;7.07;;
51298;SDS011;37382;45.192;9.790;2024-03-07T06:42:13;12.18;;;7.72;;
51298;SDS011;37382;45.192;9.790;2024-03-07T06:44:42;12.98;;;6.90;;
51298;SDS011;37382;45.192;9.790;2024-03-07T06:47:10;13.40;;;9.35;;
51298;SDS011;37382;45.192;9.790;2024-03-07T06:49:38;14.80;;;10.63;;
51298;SDS011;37382;45.192;9.790;2024-03-07T06:52:07;13.15;;;10.70;;
51298;SDS011;37382;45.192;9.790;2024-03-07T06:54:35;16.80;;;10.48;;
51298;SDS011;37382;45.192;9.790;2024-03-07T06:57:02;15.90;;;10.93;;
51298;SDS011;37382;45.192;9.790;2024-03-07T06:59:30;14.07;;;11.52;;
51298;SDS011;37382;45.192;9.790;2024-03-07T07:01:58;20.13;;;12.32;;
51298;SDS011;37382;45.192;9.790;2024-03-07T07:04:26;17.27;;;14.13;;
51298;SDS011;37382;45.192;9.790;2024-03-07T07:06:59;25.08;;;14.40;;
51298;SDS011;37382;45.192;9.790;2024-03-07T07:09:28;15.88;;;13.88;;
51298;SDS011;37382;45.192;9.790;2024-03-07T07:11:56;24.05;;;14.80;;
51298;SDS011;37382;45.192;9.790;2024-03-07T07:14:23;16.80;;;14.48;;
51298;SDS011;37382;45.192;9.790;2024-03-07T07:16:51;18.88;;;13.93;;
51298;SDS011;37382;45.192;9.790;2024-03-07T07:19:19;21.95;;;14.95;;
51298;SDS011;37382;45.192;9.790;2024-03-07T07:21:47;20.42;;;15.10;;
51298;SDS011;37382;45.192;9.790;2024-03-07T07:24:20;26.98;;;16.20;;
51298;SDS011;37382;45.192;9.790;2024-03-07T07:26:50;16.48;;;13.82;;
51298;SDS011;37382;45.192;9.790;2024-03-07T07:29:18;23.70;;;13.45;;
51298;SDS011;37382;45.192;9.790;2024-03-07T07:31:46;17.77;;;13.07;;
51298;SDS011;37382;45.192;9.790;2024-03-07T07:34:13;16.67;;;12.65;;
51298;SDS011;37382;45.192;9.790;2024-03-07T07:36:41;18.67;;;12.70;;
51298;SDS011;37382;45.192;9.790;2024-03-07T07:39:08;16.33;;;11.38;;
51298;SDS011;37382;45.192;9.790;2024-03-07T07:41:44;15.32;;;11.35;;
51298;SDS011;37382;45.192;9.790;2024-03-07T07:44:11;17.55;;;10.52;;
51298;SDS011;37382;45.192;9.790;2024-03-07T07:46:39;17.80;;;9.82;;
51298;SDS011;37382;45.192;9.790;2024-03-07T07:49:07;11.73;;;10.27;;
51298;SDS011;37382;45.192;9.790;2024-03-07T07:51:35;12.48;;;8.70;;
51298;SDS011;37382;45.192;9.790;2024-03-07T07:54:02;12.57;;;8.07;;
51298;SDS011;37382;45.192;9.790;2024-03-07T07:56:30;11.68;;;8.18;;
51298;SDS011;37382;45.192;9.790;2024-03-07T07:58:58;10.45;;;8.02;;
51298;SDS011;37382;45.192;9.790;2024-03-07T08:01:25;16.08;;;8.13;;
51298;SDS011;37382;45.192;9.790;2024-03-07T08:03:53;16.52;;;11.38;;
51298;SDS011;37382;45.192;9.790;2024-03-07T08:06:21;21.20;;;12.45;;
51298;SDS011;37382;45.192;9.790;2024-03-07T08:08:48;23.63;;;13.32;;
51298;SDS011;37382;45.192;9.790;2024-03-07T08:11:17;20.33;;;14.15;;
51298;SDS011;37382;45.192;9.790;2024-03-07T08:13:45;18.10;;;12.25;;
51298;SDS011;37382;45.192;9.790;2024-03-07T08:16:16;24.45;;;12.55;;
51298;SDS011;37382;45.192;9.790;2024-03-07T08:18:44;20.05;;;12.05;;
51298;SDS011;37382;45.192;9.790;2024-03-07T08:21:11;22.73;;;12.23;;
51298;SDS011;37382;45.192;9.790;2024-03-07T08:23:39;18.67;;;12.35;;
51298;SDS011;37382;45.192;9.790;2024-03-07T08:26:07;14.75;;;10.57;;
51298;SDS011;37382;45.192;9.790;2024-03-07T08:28:34;12.57;;;9.90;;
51298;SDS011;37382;45.192;9.790;2024-03-07T08:31:02;12.68;;;8.93;;
51298;SDS011;37382;45.192;9.790;2024-03-07T08:33:29;17.33;;;9.45;;
51298;SDS011;37382;45.192;9.790;2024-03-07T08:36:00;16.98;;;9.23;;
51298;SDS011;37382;45.192;9.790;2024-03-07T08:38:28;13.07;;;9.80;;
51298;SDS011;37382;45.192;9.790;2024-03-07T08:40:56;14.07;;;9.70;;
51298;SDS011;37382;45.192;9.790;2024-03-07T08:43:23;12.05;;;9.35;;
51298;SDS011;37382;45.192;9.790;2024-03-07T08:45:51;16.55;;;10.75;;
51298;SDS011;37382;45.192;9.790;2024-03-07T08:48:18;18.33;;;9.32;;
51298;SDS011;37382;45.192;9.790;2024-03-07T08:50:47;13.52;;;10.15;;
51298;SDS011;37382;45.192;9.790;2024-03-07T08:53:15;16.83;;;10.23;;
51298;SDS011;37382;45.192;9.790;2024-03-07T08:55:43;15.75;;;9.48;;
51298;SDS011;37382;45.192;9.790;2024-03-07T08:58:10;20.85;;;9.57;;
51298;SDS011;37382;45.192;9.790;2024-03-07T09:00:38;17.90;;;10.35;;
51298;SDS011;37382;45.192;9.790;2024-03-07T09:03:06;14.70;;;10.50;;
51298;SDS011;37382;45.192;9.790;2024-03-07T09:05:39;17.88;;;11.20;;
51298;SDS011;37382;45.192;9.790;2024-03-07T09:08:07;17.30;;;11.52;;
51298;SDS011;37382;45.192;9.790;2024-03-07T09:10:35;15.52;;;10.93;;
51298;SDS011;37382;45.192;9.790;2024-03-07T09:13:02;21.58;;;11.43;;
51298;SDS011;37382;45.192;9.790;2024-03-07T09:15:30;21.20;;;12.32;;
51298;SDS011;37382;45.192;9.790;2024-03-07T09:17:58;18.40;;;11.60;;
51298;SDS011;37382;45.192;9.790;2024-03-07T09:20:26;21.35;;;12.05;;
51298;SDS011;37382;45.192;9.790;2024-03-07T09:22:56;17.08;;;12.10;;
51298;SDS011;37382;45.192;9.790;2024-03-07T09:25:23;14.50;;;11.73;;
51298;SDS011;37382;45.192;9.790;2024-03-07T09:27:53;18.88;;;12.63;;
51298;SDS011;37382;45.192;9.790;2024-03-07T09:30:22;21.10;;;12.20;;
51298;SDS011;37382;45.192;9.790;2024-03-07T09:32:54;22.85;;;15.25;;
51298;SDS011;37382;45.192;9.790;2024-03-07T09:35:25;14.80;;;13.23;;
51298;SDS011;37382;45.192;9.790;2024-03-07T09:37:53;19.85;;;15.00;;
51298;SDS011;37382;45.192;9.790;2024-03-07T09:40:22;18.23;;;13.57;;
51298;SDS011;37382;45.192;9.790;2024-03-07T09:42:54;20.67;;;15.82;;
51298;SDS011;37382;45.192;9.790;2024-03-07T09:45:27;22.17;;;15.50;;
51298;SDS011;37382;45.192;9.790;2024-03-07T09:47:56;16.45;;;13.50;;
51298;SDS011;37382;45.192;9.790;2024-03-07T09:50:25;22.75;;;15.52;;
51298;SDS011;37382;45.192;9.790;2024-03-07T09:52:56;23.33;;;14.65;;
51298;SDS011;37382;45.192;9.790;2024-03-07T09:55:25;24.02;;;16.00;;
51298;SDS011;37382;45.192;9.790;2024-03-07T09:57:54;16.75;;;13.18;;
51298;SDS011;37382;45.192;9.790;2024-03-07T10:00:25;20.45;;;13.95;;
51298;SDS011;37382;45.192;9.790;2024-03-07T10:03:01;17.20;;;13.88;;
51298;SDS011;37382;45.192;9.790;2024-03-07T10:05:37;19.75;;;14.63;;
51298;SDS011;37382;45.192;9.790;2024-03-07T10:08:06;15.95;;;13.73;;
51298;SDS011;37382;45.192;9.790;2024-03-07T10:10:35;16.10;;;13.48;;
51298;SDS011;37382;45.192;9.790;2024-03-07T10:13:02;19.80;;;13.20;;
51298;SDS011;37382;45.192;9.790;2024-03-07T10:15:32;19.25;;;13.25;;
51298;SDS011;37382;45.192;9.790;2024-03-07T10:18:00;22.50;;;14.30;;
51298;SDS011;37382;45.192;9.790;2024-03-07T10:20:29;20.77;;;14.02;;
51298;SDS011;37382;45.192;9.790;2024-03-07T10:22:57;23.50;;;15.50;;
51298;SDS011;37382;45.192;9.790;2024-03-07T10:25:25;22.30;;;14.40;;
51298;SDS011;37382;45.192;9.790;2024-03-07T10:27:56;22.17;;;15.20;;
51298;SDS011;37382;45.192;9.790;2024-03-07T10:30:26;19.38;;;13.93;;
51298;SDS011;37382;45.192;9.790;2024-03-07T10:32:55;20.90;;;13.63;;
51298;SDS011;37382;45.192;9.790;2024-03-07T10:35:27;25.65;;;15.05;;
51298;SDS011;37382;45.192;9.790;2024-03-07T10:37:57;25.33;;;15.40;;
51298;SDS011;37382;45.192;9.790;2024-03-07T10:40:33;19.33;;;14.18;;
51298;SDS011;37382;45.192;9.790;2024-03-07T10:43:05;23.15;;;14.23;;
51298;SDS011;37382;45.192;9.790;2024-03-07T10:45:55;23.48;;;13.70;;
51298;SDS011;37382;45.192;9.790;2024-03-07T10:48:28;18.58;;;13.43;;
51298;SDS011;37382;45.192;9.790;2024-03-07T10:51:10;16.63;;;13.60;;
51298;SDS011;37382;45.192;9.790;2024-03-07T10:53:50;17.52;;;12.63;;
51298;SDS011;37382;45.192;9.790;2024-03-07T10:56:29;18.92;;;13.48;;
51298;SDS011;37382;45.192;9.790;2024-03-07T10:59:22;20.10;;;12.45;;
51298;SDS011;37382;45.192;9.790;2024-03-07T11:04:31;22.48;;;13.05;;
51298;SDS011;37382;45.192;9.790;2024-03-07T11:07:01;22.63;;;13.93;;
51298;SDS011;37382;45.192;9.790;2024-03-07T11:09:29;19.58;;;13.50;;
51298;SDS011;37382;45.192;9.790;2024-03-07T11:12:00;22.85;;;13.20;;
51298;SDS011;37382;45.192;9.790;2024-03-07T11:14:31;16.20;;;13.02;;
51298;SDS011;37382;45.192;9.790;2024-03-07T11:17:00;21.45;;;14.07;;
51298;SDS011;37382;45.192;9.790;2024-03-07T11:19:31;21.27;;;14.02;;
51298;SDS011;37382;45.192;9.790;2024-03-07T11:22:05;26.30;;;14.15;;
51298;SDS011;37382;45.192;9.790;2024-03-07T11:25:05;19.20;;;13.32;;
51298;SDS011;37382;45.192;9.790;2024-03-07T11:27:38;16.85;;;13.30;;
51298;SDS011;37382;45.192;9.790;2024-03-07T11:30:06;19.42;;;13.00;;
51298;SDS011;37382;45.192;9.790;2024-03-07T11:32:35;17.98;;;13.52;;
51298;SDS011;37382;45.192;9.790;2024-03-07T11:35:05;22.23;;;14.32;;
51298;SDS011;37382;45.192;9.790;2024-03-07T11:37:44;18.35;;;13.82;;
51298;SDS011;37382;45.192;9.790;2024-03-07T11:42:52;19.83;;;13.65;;
51298;SDS011;37382;45.192;9.790;2024-03-07T11:45:21;20.73;;;15.15;;
51298;SDS011;37382;45.192;9.790;2024-03-07T11:47:57;24.02;;;14.63;;
51298;SDS011;37382;45.192;9.790;2024-03-07T11:50:38;20.55;;;15.00;;
51298;SDS011;37382;45.192;9.790;2024-03-07T11:53:07;22.15;;;14.52;;
51298;SDS011;37382;45.192;9.790;2024-03-07T11:55:36;18.70;;;14.20;;
51298;SDS011;37382;45.192;9.790;2024-03-07T11:58:16;23.55;;;14.82;;
51298;SDS011;37382;45.192;9.790;2024-03-07T12:00:45;27.48;;;16.38;;
51298;SDS011;37382;45.192;9.790;2024-03-07T12:03:14;20.27;;;15.18;;
51298;SDS011;37382;45.192;9.790;2024-03-07T12:05:45;24.27;;;15.10;;
51298;SDS011;37382;45.192;9.790;2024-03-07T12:08:14;21.38;;;15.88;;
51298;SDS011;37382;45.192;9.790;2024-03-07T12:10:43;21.80;;;15.60;;
51298;SDS011;37382;45.192;9.790;2024-03-07T12:13:16;25.50;;;15.73;;
51298;SDS011;37382;45.192;9.790;2024-03-07T12:15:44;26.33;;;14.68;;
51298;SDS011;37382;45.192;9.790;2024-03-07T12:18:12;27.48;;;14.55;;
51298;SDS011;37382;45.192;9.790;2024-03-07T12:20:45;26.45;;;16.35;;
51298;SDS011;37382;45.192;9.790;2024-03-07T12:23:22;35.05;;;23.30;;
51298;SDS011;37382;45.192;9.790;2024-03-07T12:26:02;23.00;;;14.63;;
51298;SDS011;37382;45.192;9.790;2024-03-07T12:28:31;22.45;;;14.20;;
51298;SDS011;37382;45.192;9.790;2024-03-07T12:31:01;24.75;;;13.77;;
51298;SDS011;37382;45.192;9.790;2024-03-07T12:33:30;23.02;;;13.88;;
51298;SDS011;37382;45.192;9.790;2024-03-07T12:36:01;21.30;;;13.85;;
51298;SDS011;37382;45.192;9.790;2024-03-07T12:38:42;25.45;;;13.75;;
51298;SDS011;37382;45.192;9.790;2024-03-07T12:41:11;21.38;;;13.80;;
51298;SDS011;37382;45.192;9.790;2024-03-07T12:43:43;27.05;;;13.48;;
51298;SDS011;37382;45.192;9.790;2024-03-07T12:46:14;22.55;;;14.05;;
51298;SDS011;37382;45.192;9.790;2024-03-07T12:48:44;25.00;;;15.02;;
51298;SDS011;37382;45.192;9.790;2024-03-07T12:51:14;22.65;;;14.40;;
51298;SDS011;37382;45.192;9.790;2024-03-07T12:53:47;24.45;;;14.48;;
51298;SDS011;37382;45.192;9.790;2024-03-07T12:56:16;16.95;;;15.00;;
51298;SDS011;37382;45.192;9.790;2024-03-07T12:58:47;19.67;;;14.55;;
51298;SDS011;37382;45.192;9.790;2024-03-07T13:01:17;20.73;;;15.40;;
51298;SDS011;37382;45.192;9.790;2024-03-07T13:03:46;26.75;;;15.63;;
51298;SDS011;37382;45.192;9.790;2024-03-07T13:06:15;21.08;;;14.65;;
51298;SDS011;37382;45.192;9.790;2024-03-07T13:11:14;21.65;;;13.85;;
51298;SDS011;37382;45.192;9.790;2024-03-07T13:13:43;20.55;;;14.88;;
51298;SDS011;37382;45.192;9.790;2024-03-07T13:16:10;22.23;;;14.35;;
51298;SDS011;37382;45.192;9.790;2024-03-07T13:18:38;24.50;;;14.30;;
51298;SDS011;37382;45.192;9.790;2024-03-07T13:21:06;19.65;;;14.07;;
51298;SDS011;37382;45.192;9.790;2024-03-07T13:23:34;22.85;;;14.90;;
51298;SDS011;37382;45.192;9.790;2024-03-07T13:26:03;24.00;;;15.02;;
51298;SDS011;37382;45.192;9.790;2024-03-07T13:28:36;22.05;;;14.55;;
51298;SDS011;37382;45.192;9.790;2024-03-07T13:31:04;21.65;;;13.65;;
51298;SDS011;37382;45.192;9.790;2024-03-07T13:33:31;20.80;;;14.10;;
51298;SDS011;37382;45.192;9.790;2024-03-07T13:36:00;30.02;;;13.80;;
51298;SDS011;37382;45.192;9.790;2024-03-07T13:38:28;19.35;;;12.20;;
51298;SDS011;37382;45.192;9.790;2024-03-07T13:40:57;17.05;;;13.15;;
51298;SDS011;37382;45.192;9.790;2024-03-07T13:43:24;20.92;;;13.23;;
51298;SDS011;37382;45.192;9.790;2024-03-07T13:45:52;16.95;;;13.15;;
51298;SDS011;37382;45.192;9.790;2024-03-07T13:48:20;18.10;;;13.55;;
51298;SDS011;37382;45.192;9.790;2024-03-07T13:50:49;19.48;;;12.35;;
51298;SDS011;37382;45.192;9.790;2024-03-07T13:53:26;20.92;;;13.45;;
51298;SDS011;37382;45.192;9.790;2024-03-07T13:58:45;20.33;;;12.55;;
51298;SDS011;37382;45.192;9.790;2024-03-07T14:01:51;21.85;;;12.13;;
51298;SDS011;37382;45.192;9.790;2024-03-07T14:04:45;17.55;;;12.15;;
51298;SDS011;37382;45.192;9.790;2024-03-07T14:27:57;11.43;;;8.50;;
51298;SDS011;37382;45.192;9.790;2024-03-07T14:30:37;19.13;;;10.30;;
51298;SDS011;37382;45.192;9.790;2024-03-07T14:33:07;13.35;;;8.63;;
51298;SDS011;37382;45.192;9.790;2024-03-07T14:41:18;12.93;;;8.85;;
51298;SDS011;37382;45.192;9.790;2024-03-07T14:43:48;14.68;;;8.95;;
51298;SDS011;37382;45.192;9.790;2024-03-07T14:46:16;14.27;;;8.90;;
51298;SDS011;37382;45.192;9.790;2024-03-07T14:48:44;13.88;;;8.02;;
51298;SDS011;37382;45.192;9.790;2024-03-07T14:51:13;12.13;;;8.30;;
51298;SDS011;37382;45.192;9.790;2024-03-07T14:53:42;11.75;;;8.77;;
51298;SDS011;37382;45.192;9.790;2024-03-07T14:56:10;9.57;;;8.02;;
51298;SDS011;37382;45.192;9.790;2024-03-07T14:58:38;14.43;;;9.35;;
51298;SDS011;37382;45.192;9.790;2024-03-07T15:01:08;15.25;;;8.05;;
51298;SDS011;37382;45.192;9.790;2024-03-07T15:03:36;15.65;;;7.25;;
51298;SDS011;37382;45.192;9.790;2024-03-07T15:06:05;9.73;;;8.05;;
51298;SDS011;37382;45.192;9.790;2024-03-07T15:08:38;11.55;;;7.60;;
51298;SDS011;37382;45.192;9.790;2024-03-07T15:11:07;11.73;;;8.05;;
51298;SDS011;37382;45.192;9.790;2024-03-07T15:13:44;14.10;;;7.53;;